Terminal Aerodrome Forecast
Issued by NWS

Home | Current Version | Previous Version | Graphics & Text | Print | Product List | Glossary On
Versions: 1 2 3 4 5 6 7 8 9 10 11 12 13 14 15 16
879
FTUS43 KICT 231035 AAB
TAFRSL
TAF AMD
KRSL 231035Z 2311/2406 14017KT P6SM OVC008
     FM231300 17017G22KT P6SM OVC008
     FM231500 17022G30KT P6SM OVC013
     FM231700 18022G30KT P6SM OVC025
     FM231800 18026G35KT P6SM SCT035 OVC180=

USA.gov is the U.S. government's official web portal to all federal, state and local government web resources and services.